Elmer, OK (73539)

8:30 PM CDT on September 02, 2015 (GMT -0500)
NE of Olustee | | Change Station
CLOSE
Current Station
Personal Weather Station
Location: Altus, OK
Elevation: 1368 ft
Nearby Weather Stations

Elev 1368 ft 34.56 °N, 99.38 °W | Updated 39 seconds ago

Clear
Clear
84.4 °F
Feels Like 81 °F
N
7.2
Wind Variable Wind from SE
Gusts 7.4 mph

Today
High -- | Low -- °F
--% Chance of Precip.
Yesterday
High -- | Low -- °F
Precip. -- in
7:10 AM 8:02 PM
Waning Gibbous, 75% visible
Pressure 29.86 in
Visibility 10.0 miles
Clouds Mostly Cloudy 15000 ft
Heat Index 81 °F
Dew Point 26 °F
Humidity 12%
Rainfall 0.00 in
Snow Depth Not available.
UV 0 out of 12
Pollen 10.00 out of 12
Air Quality Not available.
Flu Activity Not available.
METAR KLTS 022358Z 15010KT 10SM BKN150 32/16 A2990 RMK AO2A SLP110 T03240160 10363 20324 56013 $
Pressure 29.86 in
Visibility 10.0 miles
Clouds Mostly Cloudy 15000 ft
Heat Index 81 °F
Dew Point 26 °F
Humidity 12%
Rainfall 0.00 in
Snow Depth Not available.
UV 0 out of 12
Pollen 10.00 out of 12
Air Quality Not available.
Flu Activity Not available.
METAR KLTS 022358Z 15010KT 10SM BKN150 32/16 A2990 RMK AO2A SLP110 T03240160 10363 20324 56013 $

10-Day Weather Forecast

×

Almanac

Astronomy

Sep. 02, 2015 Rise Set
Actual Time
Civil Twilight
Nautical Twilight
Astronomical Twilight
Moon
Length of Visible Light
Length of Day
Tomorrow will be .
, % of the Moon is Illuminated

Today's Extremes

State Highs State Lows

Community

WunderPhotos

Upload Photos

1,851,868 photos uploaded!

WunderBlogs® & News

Nearby

Air Quality

  Air Quality AQ Index Pollutant
Not available.

Snow Depth

Station Depth Elevation

Earthquake Activity

City Distance Mag. Time & Date
Minimum magnitude displayed is 2.5.

Coastal Water Temperatures

Place Temperature

Stations

Nearby Weather Stations

Station Location Temp. Windchill Dew Point Humidity Wind Precip. Elev Updated Type